Time;durP1;ratioP1;P1;durP2;ratioP2;P2;SDS_P1;SDS_P2;PMS_P1;PMS_P2;Temp;Humidity;BMP_temperature;BMP_pressure;BME280_temperature;BME280_humidity;BME280_pressure;Samples;Min_cycle;Max_cycle;Signal;HPM_P1;HPM_P2
2022/11/12 00:00:31;;;;;;;28.70;17.50;;;6.40;99.90;;;;;;4985144;28;20092;-77
2022/11/12 00:02:57;;;;;;;30.07;18.00;;;6.40;99.90;;;;;;4988521;28;20497;-77
2022/11/12 00:05:23;;;;;;;29.37;17.73;;;6.10;99.90;;;;;;4988305;28;20124;-77
2022/11/12 00:07:49;;;;;;;27.07;17.60;;;6.20;99.90;;;;;;4949039;28;20328;-77
2022/11/12 00:10:15;;;;;;;37.67;19.73;;;6.20;99.90;;;;;;4983736;28;20043;-80
2022/11/12 00:12:40;;;;;;;31.10;19.30;;;6.10;99.90;;;;;;4989967;28;20058;-77
2022/11/12 00:15:07;;;;;;;32.27;20.97;;;6.20;99.90;;;;;;4987538;28;20318;-78
2022/11/12 00:17:32;;;;;;;33.00;21.17;;;6.10;99.90;;;;;;4967642;28;20044;-77
2022/11/12 00:19:58;;;;;;;31.03;19.03;;;6.10;99.90;;;;;;4988534;28;20050;-78
2022/11/12 00:22:23;;;;;;;29.53;18.87;;;6.20;99.90;;;;;;4984401;28;20086;-77
2022/11/12 00:24:49;;;;;;;35.43;20.33;;;6.10;99.90;;;;;;4990366;28;20121;-78
2022/11/12 00:27:15;;;;;;;35.27;20.27;;;6.00;99.90;;;;;;4970729;28;20181;-79
2022/11/12 00:29:41;;;;;;;30.47;17.80;;;6.00;99.90;;;;;;4989727;28;20460;-77
2022/11/12 00:32:07;;;;;;;29.63;20.47;;;6.00;99.90;;;;;;4987011;28;20050;-77
2022/11/12 00:34:33;;;;;;;31.20;17.23;;;6.00;99.90;;;;;;4991530;28;20529;-78
2022/11/12 00:37:00;;;;;;;33.53;17.33;;;5.80;99.90;;;;;;4976031;28;20497;-77
2022/11/12 00:39:26;;;;;;;35.53;17.83;;;6.00;99.90;;;;;;4986802;28;20057;-77
2022/11/12 00:41:51;;;;;;;31.37;18.87;;;5.80;99.90;;;;;;4971848;28;20054;-78
2022/11/12 00:44:17;;;;;;;32.50;17.70;;;5.90;99.90;;;;;;4991129;28;20193;-77
2022/11/12 00:46:43;;;;;;;25.90;16.33;;;5.90;99.90;;;;;;4976257;28;20408;-77
2022/11/12 00:49:08;;;;;;;35.20;19.70;;;5.90;99.90;;;;;;4986903;28;20709;-77
2022/11/12 00:51:34;;;;;;;35.77;19.67;;;5.70;99.90;;;;;;4988192;28;20053;-77
2022/11/12 00:54:01;;;;;;;32.73;18.10;;;5.80;99.90;;;;;;4986369;28;20104;-79
2022/11/12 00:56:26;;;;;;;32.90;17.63;;;5.80;99.90;;;;;;4978202;28;20543;-78
2022/11/12 00:58:52;;;;;;;35.00;19.07;;;5.80;99.90;;;;;;4984157;28;20416;-77
2022/11/12 01:01:18;;;;;;;38.03;22.17;;;5.80;99.90;;;;;;4987439;28;20054;-79
2022/11/12 01:03:44;;;;;;;41.17;21.63;;;5.90;99.90;;;;;;4990730;28;20056;-78
2022/11/12 01:06:12;;;;;;;33.10;19.90;;;5.90;99.90;;;;;;4981121;28;20412;-79
2022/11/12 01:08:39;;;;;;;32.50;19.67;;;5.80;99.90;;;;;;4983682;28;20046;-77
2022/11/12 01:11:16;;;;;;;31.17;18.40;;;5.70;99.90;;;;;;4981888;28;20045;-77
2022/11/12 01:13:44;;;;;;;42.23;22.00;;;5.70;99.90;;;;;;4969560;28;20519;-77
2022/11/12 01:16:16;;;;;;;41.53;23.67;;;5.80;99.90;;;;;;4978543;28;20315;-79
2022/11/12 01:18:43;;;;;;;38.43;21.27;;;5.90;99.90;;;;;;4982840;28;20047;-78
2022/11/12 01:21:08;;;;;;;40.77;22.77;;;5.80;99.90;;;;;;4983066;28;20465;-77
2022/11/12 01:23:36;;;;;;;35.77;21.87;;;6.00;99.90;;;;;;4984871;28;20121;-77
2022/11/12 01:26:10;;;;;;;40.40;23.87;;;5.90;99.90;;;;;;4986082;28;20114;-77
2022/11/12 01:28:36;;;;;;;42.00;24.00;;;5.90;99.90;;;;;;4964580;28;20058;-77
2022/11/12 01:31:12;;;;;;;39.93;23.20;;;5.90;99.90;;;;;;4988140;28;20066;-77
2022/11/12 01:33:39;;;;;;;41.37;23.53;;;5.90;99.90;;;;;;4986143;28;20487;-78
2022/11/12 01:36:05;;;;;;;40.57;23.00;;;5.90;99.90;;;;;;4989969;28;20065;-77
2022/11/12 01:38:35;;;;;;;38.27;23.40;;;5.90;99.90;;;;;;4974257;28;20050;-77
2022/11/12 01:41:01;;;;;;;36.27;21.40;;;5.90;99.90;;;;;;4987797;28;20129;-77
2022/11/12 01:43:26;;;;;;;33.03;20.67;;;6.00;99.90;;;;;;4982192;28;20054;-77
2022/11/12 01:45:53;;;;;;;31.27;19.80;;;5.90;99.90;;;;;;4982759;28;20080;-77
2022/11/12 01:48:27;;;;;;;40.23;22.10;;;5.80;99.90;;;;;;4967508;28;20061;-78
2022/11/12 01:50:54;;;;;;;37.87;22.40;;;5.80;99.90;;;;;;4979396;28;20051;-77
2022/11/12 01:53:21;;;;;;;32.83;20.47;;;5.70;99.90;;;;;;4986699;28;20043;-77
2022/11/12 01:55:48;;;;;;;34.90;20.57;;;5.60;99.90;;;;;;4982627;28;20054;-77
2022/11/12 01:58:17;;;;;;;31.43;18.63;;;5.60;99.90;;;;;;4971682;28;20054;-77
2022/11/12 02:00:43;;;;;;;32.37;19.60;;;5.60;99.90;;;;;;4987823;28;20050;-77
2022/11/12 02:03:16;;;;;;;34.73;19.20;;;5.50;99.90;;;;;;4989740;28;20064;-77
2022/11/12 02:05:42;;;;;;;29.20;17.33;;;5.40;99.90;;;;;;4984418;28;20046;-77
2022/11/12 02:08:11;;;;;;;30.80;18.60;;;5.40;99.90;;;;;;4970035;28;20139;-77
2022/11/12 02:10:39;;;;;;;27.77;18.43;;;5.30;99.90;;;;;;4985923;28;20508;-78
2022/11/12 02:15:51;;;;;;;33.27;19.27;;;5.40;99.90;;;;;;4987782;28;20054;-77
2022/11/12 02:18:16;;;;;;;41.10;22.00;;;5.40;99.90;;;;;;4972624;28;20050;-79
2022/11/12 02:20:42;;;;;;;38.17;21.03;;;5.30;99.90;;;;;;4967078;28;20546;-77
2022/11/12 02:23:08;;;;;;;36.13;19.73;;;5.30;99.90;;;;;;4968099;28;20101;-78
2022/11/12 02:25:34;;;;;;;26.33;16.00;;;5.20;99.90;;;;;;4989557;28;20046;-78
2022/11/12 02:28:03;;;;;;;27.47;15.70;;;4.90;99.90;;;;;;4949346;28;20054;-78
2022/11/12 02:30:37;;;;;;;28.07;16.53;;;4.90;99.90;;;;;;4987693;28;20050;-78
2022/11/12 02:33:03;;;;;;;35.13;18.67;;;4.90;99.90;;;;;;4978241;28;20479;-77
2022/11/12 02:35:29;;;;;;;35.40;19.40;;;4.70;99.90;;;;;;4966721;28;20050;-77
2022/11/12 02:37:55;;;;;;;37.63;19.57;;;4.70;99.90;;;;;;4972107;28;20096;-78
2022/11/12 02:40:21;;;;;;;35.63;19.03;;;4.70;99.90;;;;;;4986768;28;20050;-77
2022/11/12 02:42:47;;;;;;;33.30;17.90;;;4.70;99.90;;;;;;4988381;28;20053;-78
2022/11/12 02:45:13;;;;;;;34.10;17.57;;;4.60;99.90;;;;;;4989760;28;20049;-77
2022/11/12 02:47:39;;;;;;;41.93;23.00;;;4.50;99.90;;;;;;4973517;28;20408;-77
2022/11/12 02:50:05;;;;;;;26.33;16.03;;;4.80;99.90;;;;;;4975861;28;20045;-77
2022/11/12 02:52:31;;;;;;;27.13;17.50;;;4.60;99.90;;;;;;4964941;28;20046;-77
2022/11/12 02:54:57;;;;;;;23.47;16.30;;;4.40;99.90;;;;;;4989803;28;20078;-77
2022/11/12 02:57:23;;;;;;;20.07;13.90;;;4.60;99.90;;;;;;4972702;28;20054;-77
2022/11/12 02:59:48;;;;;;;20.20;13.03;;;4.30;99.90;;;;;;4988618;28;20065;-79
2022/11/12 03:02:14;;;;;;;20.93;13.23;;;4.20;99.90;;;;;;4985082;28;20046;-78
2022/11/12 03:04:40;;;;;;;24.53;14.60;;;4.20;99.90;;;;;;4985951;28;20050;-77
2022/11/12 03:07:05;;;;;;;25.07;15.20;;;4.20;99.90;;;;;;4954500;28;20050;-77
2022/11/12 03:09:31;;;;;;;40.37;22.37;;;4.20;99.90;;;;;;4984530;28;20053;-77
2022/11/12 03:11:57;;;;;;;46.10;24.80;;;4.30;99.90;;;;;;4986722;28;20467;-77
2022/11/12 03:14:22;;;;;;;53.17;28.73;;;4.40;99.90;;;;;;4981060;28;20058;-77
2022/11/12 03:16:48;;;;;;;53.63;28.47;;;4.70;99.90;;;;;;4965631;28;20568;-77
2022/11/12 03:19:14;;;;;;;59.93;32.03;;;4.90;99.90;;;;;;4983798;28;20047;-78
2022/11/12 03:21:39;;;;;;;67.73;33.67;;;4.80;99.90;;;;;;4980222;28;20412;-77
2022/11/12 03:24:06;;;;;;;68.10;36.03;;;4.90;99.90;;;;;;4982883;28;20055;-77
2022/11/12 03:26:31;;;;;;;63.03;36.50;;;5.10;99.90;;;;;;4970877;28;20595;-77
2022/11/12 03:28:57;;;;;;;65.80;36.37;;;5.30;99.90;;;;;;4983077;28;20113;-78
2022/11/12 03:31:23;;;;;;;64.33;35.23;;;5.20;99.90;;;;;;4980826;28;20061;-77
2022/11/12 03:33:48;;;;;;;66.47;35.47;;;5.30;99.90;;;;;;4979071;28;20069;-78
2022/11/12 03:36:14;;;;;;;56.27;30.33;;;5.10;99.90;;;;;;4979363;28;20109;-77
2022/11/12 03:38:39;;;;;;;39.93;19.40;;;5.00;99.90;;;;;;4980856;28;20133;-78
2022/11/12 03:41:05;;;;;;;34.20;17.50;;;4.60;99.90;;;;;;4986375;28;20046;-77
2022/11/12 03:43:31;;;;;;;27.37;15.43;;;4.40;99.90;;;;;;4982735;28;20087;-77
2022/11/12 03:45:57;;;;;;;23.17;13.60;;;4.20;99.90;;;;;;4985323;28;20046;-77
2022/11/12 03:48:22;;;;;;;18.27;12.00;;;4.00;99.90;;;;;;4972815;28;20058;-77
2022/11/12 03:50:48;;;;;;;17.00;11.70;;;4.00;99.90;;;;;;4981591;28;20420;-79
2022/11/12 03:53:14;;;;;;;50.87;25.87;;;3.90;99.90;;;;;;4983199;28;20488;-77
2022/11/12 03:55:40;;;;;;;62.93;33.87;;;4.10;99.90;;;;;;4969242;28;20085;-77
2022/11/12 03:58:06;;;;;;;68.83;37.33;;;4.80;99.90;;;;;;4971584;28;20043;-77
2022/11/12 04:00:32;;;;;;;65.13;35.23;;;5.00;99.90;;;;;;4987459;28;20054;-77
2022/11/12 04:02:57;;;;;;;67.87;36.53;;;4.90;99.90;;;;;;4987821;28;20104;-77
2022/11/12 04:10:59;;;;;;;49.30;26.77;;;4.90;99.90;;;;;;4981324;28;20554;-79
2022/11/12 04:13:28;;;;;;;44.23;26.50;;;4.80;99.90;;;;;;4983693;28;20077;-78
2022/11/12 04:21:53;;;;;;;43.27;25.83;;;4.70;99.90;;;;;;4964184;28;20408;-77
2022/11/12 04:27:28;;;;;;;68.90;34.10;;;4.50;99.90;;;;;;4969782;28;20058;-77
2022/11/12 04:32:50;;;;;;;36.67;23.17;;;4.50;99.90;;;;;;4987312;28;20137;-77
2022/11/12 04:35:15;;;;;;;43.20;25.20;;;4.40;99.90;;;;;;4971651;28;20058;-80
2022/11/12 04:37:44;;;;;;;50.83;27.70;;;4.50;99.90;;;;;;4974056;28;20064;-77
2022/11/12 04:45:48;;;;;;;21.33;15.17;;;4.20;99.90;;;;;;4992227;28;20061;-77
2022/11/12 04:48:14;;;;;;;29.47;16.77;;;3.90;99.90;;;;;;4975160;28;20050;-77
2022/11/12 04:50:42;;;;;;;220.90;28.50;;;3.90;99.90;;;;;;4983756;28;20404;-77
2022/11/12 04:53:09;;;;;;;60.50;21.03;;;3.90;99.90;;;;;;4986862;28;20086;-77
2022/11/12 04:55:34;;;;;;;211.90;35.80;;;3.80;99.90;;;;;;4991868;28;20137;-77
2022/11/12 04:58:00;;;;;;;383.40;45.00;;;3.70;99.90;;;;;;4967381;28;20141;-78
2022/11/12 05:00:26;;;;;;;86.37;17.63;;;3.90;99.90;;;;;;4987118;28;20055;-78
2022/11/12 05:02:52;;;;;;;23.90;15.03;;;3.80;99.90;;;;;;4990106;28;20050;-77
2022/11/12 05:05:17;;;;;;;146.00;20.30;;;3.80;99.90;;;;;;4991814;28;20112;-77
2022/11/12 05:07:43;;;;;;;37.73;18.53;;;3.80;99.90;;;;;;4971738;28;20091;-77
2022/11/12 05:10:09;;;;;;;47.67;24.63;;;3.80;99.90;;;;;;4984439;28;20165;-77
2022/11/12 05:12:35;;;;;;;49.73;27.17;;;4.00;99.90;;;;;;4988080;28;20053;-78
2022/11/12 05:15:01;;;;;;;40.50;25.03;;;4.30;99.90;;;;;;4991470;28;20050;-77
2022/11/12 05:17:27;;;;;;;46.50;25.33;;;4.20;99.90;;;;;;4971881;28;20239;-79
2022/11/12 05:19:53;;;;;;;45.07;24.77;;;4.40;99.90;;;;;;4989343;28;20567;-79
2022/11/12 05:22:18;;;;;;;69.53;35.13;;;4.20;99.90;;;;;;4978928;28;20504;-77
2022/11/12 05:24:44;;;;;;;101.07;48.90;;;4.30;99.90;;;;;;4986403;28;20046;-78
2022/11/12 05:27:18;;;;;;;93.63;46.13;;;4.60;99.90;;;;;;4973557;28;20149;-77
2022/11/12 05:29:43;;;;;;;154.20;95.90;;;4.80;99.90;;;;;;4988628;28;20058;-78
2022/11/12 05:32:14;;;;;;;127.00;69.07;;;4.80;99.90;;;;;;4985145;28;20069;-77
2022/11/12 05:34:40;;;;;;;136.90;61.60;;;5.10;99.90;;;;;;4991266;28;21336;-77
2022/11/12 05:37:07;;;;;;;161.17;63.53;;;5.20;99.90;;;;;;4973092;28;20081;-77
2022/11/12 05:39:33;;;;;;;201.37;71.80;;;5.10;99.90;;;;;;4988827;28;20074;-77
2022/11/12 05:41:58;;;;;;;259.07;94.10;;;5.20;99.90;;;;;;4986245;28;20092;-77
2022/11/12 05:44:24;;;;;;;311.60;87.97;;;5.40;99.90;;;;;;4987822;28;20063;-77
2022/11/12 05:46:50;;;;;;;344.97;93.40;;;5.30;99.90;;;;;;4973305;28;20736;-77
2022/11/12 05:49:16;;;;;;;299.43;78.90;;;5.30;99.90;;;;;;4980291;28;20046;-77
2022/11/12 05:51:42;;;;;;;399.27;93.77;;;5.40;99.90;;;;;;4981612;28;20175;-77
2022/11/12 05:54:08;;;;;;;532.77;128.30;;;5.40;99.90;;;;;;4981317;28;20054;-77
2022/11/12 05:56:34;;;;;;;493.53;116.90;;;5.40;99.90;;;;;;4973214;28;20046;-77
2022/11/12 05:59:02;;;;;;;500.80;116.10;;;5.50;99.90;;;;;;4984375;28;20112;-77
2022/11/12 06:01:28;;;;;;;470.07;102.73;;;5.60;99.90;;;;;;4985227;28;20559;-77
2022/11/12 06:03:55;;;;;;;523.20;117.47;;;5.60;99.90;;;;;;4983787;28;20058;-77
2022/11/12 06:06:21;;;;;;;350.90;87.73;;;5.60;99.90;;;;;;4978911;28;20528;-79
2022/11/12 06:08:46;;;;;;;395.87;84.17;;;5.60;99.90;;;;;;4984905;28;20050;-77
2022/11/12 06:11:12;;;;;;;514.40;104.83;;;5.70;99.90;;;;;;4983249;28;20042;-77
2022/11/12 06:13:38;;;;;;;349.47;82.83;;;5.70;99.90;;;;;;4979770;28;20046;-77
2022/11/12 06:16:03;;;;;;;531.90;113.57;;;5.70;99.90;;;;;;4986605;28;20129;-77
2022/11/12 06:18:29;;;;;;;292.40;79.87;;;5.80;99.90;;;;;;4968667;28;20096;-78
2022/11/12 06:21:23;;;;;;;195.33;71.83;;;5.90;99.90;;;;;;4981075;28;20046;-77
2022/11/12 06:23:52;;;;;;;431.87;103.77;;;5.90;99.90;;;;;;4984408;28;20046;-80
2022/11/12 06:26:19;;;;;;;573.77;120.20;;;5.90;99.90;;;;;;4976779;28;20412;-77
2022/11/12 06:28:45;;;;;;;524.63;121.47;;;6.00;99.90;;;;;;4982410;28;20085;-78
2022/11/12 06:31:11;;;;;;;443.47;107.77;;;6.20;99.90;;;;;;4986819;28;20066;-77
2022/11/12 06:33:37;;;;;;;368.07;102.33;;;6.10;99.90;;;;;;4971822;28;20062;-77
2022/11/12 06:36:04;;;;;;;317.97;92.17;;;6.20;99.90;;;;;;4988750;28;20069;-77
2022/11/12 06:38:31;;;;;;;300.57;91.87;;;6.10;99.90;;;;;;4956019;28;20484;-77
2022/11/12 06:40:57;;;;;;;450.27;111.27;;;6.20;99.90;;;;;;4986255;28;20042;-77
2022/11/12 06:43:23;;;;;;;394.90;97.53;;;6.20;99.90;;;;;;4988750;28;20109;-77
2022/11/12 06:45:49;;;;;;;193.73;68.83;;;6.10;99.90;;;;;;4985428;28;20456;-77
2022/11/12 06:48:15;;;;;;;302.03;73.90;;;6.00;99.90;;;;;;4965416;28;20100;-77
2022/11/12 06:50:41;;;;;;;626.70;121.80;;;6.10;99.90;;;;;;4986670;28;20105;-77
2022/11/12 06:53:06;;;;;;;524.73;113.00;;;6.10;99.90;;;;;;4986488;28;20100;-77
2022/11/12 06:55:32;;;;;;;703.00;138.87;;;6.10;99.90;;;;;;4987641;28;20682;-77
2022/11/12 06:57:58;;;;;;;782.50;135.57;;;6.10;99.90;;;;;;4971507;28;20073;-77
2022/11/12 07:00:23;;;;;;;833.60;132.43;;;6.10;99.90;;;;;;4985867;28;20053;-77
2022/11/12 07:02:49;;;;;;;1263.83;184.07;;;6.00;99.90;;;;;;4981837;28;20130;-77
2022/11/12 07:05:15;;;;;;;1073.00;161.60;;;6.00;99.90;;;;;;4985647;28;20630;-79
2022/11/12 07:07:40;;;;;;;1101.57;183.83;;;6.10;99.90;;;;;;4970354;28;20441;-77
2022/11/12 07:10:06;;;;;;;798.73;139.07;;;6.00;99.90;;;;;;4986855;28;20042;-77
2022/11/12 07:12:32;;;;;;;560.73;101.20;;;6.10;99.90;;;;;;4986194;28;20061;-77
2022/11/12 07:14:58;;;;;;;654.50;109.67;;;6.10;99.90;;;;;;4989358;28;20050;-79
2022/11/12 07:17:24;;;;;;;919.43;130.73;;;6.10;99.90;;;;;;4955857;28;20074;-77
2022/11/12 07:19:49;;;;;;;727.60;128.93;;;6.10;99.90;;;;;;4982368;28;20382;-77
2022/11/12 07:22:15;;;;;;;488.07;93.63;;;6.10;99.90;;;;;;4985200;28;20049;-77
2022/11/12 07:24:41;;;;;;;376.20;78.27;;;6.10;99.90;;;;;;4983069;28;20409;-77
2022/11/12 07:27:06;;;;;;;615.70;105.43;;;6.10;99.90;;;;;;4970851;28;20051;-77
2022/11/12 07:29:32;;;;;;;842.83;129.77;;;6.10;99.90;;;;;;4967573;28;20070;-80
2022/11/12 07:31:57;;;;;;;867.47;144.33;;;6.10;99.90;;;;;;4987730;28;20105;-78
2022/11/12 07:34:23;;;;;;;667.90;117.80;;;6.10;99.90;;;;;;4988254;28;20073;-77
2022/11/12 07:36:50;;;;;;;749.23;146.77;;;6.20;99.90;;;;;;4974125;28;20054;-77
2022/11/12 07:39:17;;;;;;;436.97;88.63;;;6.20;99.90;;;;;;4986995;28;20077;-77
2022/11/12 07:41:43;;;;;;;479.87;93.47;;;6.20;99.90;;;;;;4985051;28;20137;-77
2022/11/12 07:44:09;;;;;;;658.67;123.50;;;6.20;99.90;;;;;;4987531;28;20784;-78
2022/11/12 07:46:35;;;;;;;676.03;125.93;;;6.20;99.90;;;;;;4975630;28;20054;-77
2022/11/12 07:49:01;;;;;;;688.17;137.27;;;6.20;99.90;;;;;;4986447;28;20054;-77
2022/11/12 07:51:28;;;;;;;768.37;151.97;;;6.30;99.90;;;;;;4966821;28;20272;-78
2022/11/12 07:53:56;;;;;;;726.67;138.80;;;6.30;99.90;;;;;;4970676;28;20046;-77
2022/11/12 07:56:25;;;;;;;844.97;154.40;;;6.40;99.90;;;;;;4959959;28;20046;-80
2022/11/12 07:58:51;;;;;;;586.87;109.23;;;6.40;99.90;;;;;;4960688;28;20070;-77
2022/11/12 08:01:26;;;;;;;832.57;151.07;;;6.40;99.90;;;;;;4964401;28;20104;-77
2022/11/12 08:03:52;;;;;;;1000.83;180.47;;;6.40;99.90;;;;;;4986306;28;20050;-77
2022/11/12 08:06:17;;;;;;;967.63;184.93;;;6.50;99.90;;;;;;4976922;28;20299;-77
2022/11/12 08:08:43;;;;;;;800.93;153.67;;;6.50;99.90;;;;;;4971694;28;20130;-78
2022/11/12 08:11:09;;;;;;;771.43;149.03;;;6.50;99.90;;;;;;4979471;28;20042;-78
2022/11/12 08:13:34;;;;;;;705.60;138.60;;;6.60;99.90;;;;;;4986858;28;20082;-78
2022/11/12 08:16:00;;;;;;;741.10;139.17;;;6.50;99.90;;;;;;4990608;28;20042;-78
2022/11/12 08:18:26;;;;;;;746.13;145.40;;;6.50;99.90;;;;;;4975848;28;20070;-77
2022/11/12 08:20:57;;;;;;;672.47;143.40;;;6.50;99.90;;;;;;4987425;28;20047;-77
2022/11/12 08:23:23;;;;;;;645.70;134.95;;;6.60;99.90;;;;;;4986998;28;20050;-78
2022/11/12 08:25:49;;;;;;;793.27;152.53;;;6.50;99.90;;;;;;4988213;28;20058;-77
2022/11/12 08:28:14;;;;;;;388.50;92.37;;;6.60;99.90;;;;;;4969266;28;20400;-77
2022/11/12 08:30:40;;;;;;;722.13;142.83;;;6.60;99.90;;;;;;4981880;28;20137;-77
2022/11/12 08:33:06;;;;;;;732.00;165.23;;;6.80;99.90;;;;;;4983696;28;20047;-77
2022/11/12 08:35:32;;;;;;;679.43;142.97;;;6.70;99.90;;;;;;4983132;28;20062;-78
2022/11/12 08:38:03;;;;;;;694.93;145.43;;;6.60;99.90;;;;;;4973066;28;20049;-77
2022/11/12 08:40:31;;;;;;;628.28;126.05;;;6.50;99.90;;;;;;4982337;28;20061;-77
2022/11/12 08:43:08;;;;;;;449.30;98.33;;;6.50;99.90;;;;;;4963960;28;20081;-77
2022/11/12 08:45:37;;;;;;;479.50;96.07;;;6.70;99.90;;;;;;4961497;28;20039;-77
2022/11/12 08:48:08;;;;;;;624.87;123.30;;;6.90;99.90;;;;;;4963553;28;20076;-77
2022/11/12 08:50:35;;;;;;;693.92;127.45;;;6.80;99.90;;;;;;4977529;28;20047;-79
2022/11/12 08:53:07;;;;;;;601.80;123.00;;;6.80;99.90;;;;;;4982371;28;20039;-78
2022/11/12 08:55:34;;;;;;;582.67;116.13;;;6.90;99.90;;;;;;4962025;28;20162;-77
2022/11/12 08:58:03;;;;;;;473.30;92.30;;;6.90;99.90;;;;;;4966110;28;20050;-77
2022/11/12 09:00:32;;;;;;;475.67;86.00;;;6.90;99.90;;;;;;4983563;28;20042;-77
2022/11/12 09:03:02;;;;;;;520.77;91.07;;;7.00;99.90;;;;;;4985489;28;20484;-78
2022/11/12 09:05:28;;;;;;;586.67;106.23;;;7.10;99.90;;;;;;4978297;28;20073;-80
2022/11/12 09:08:02;;;;;;;608.63;109.00;;;7.10;99.90;;;;;;4967178;28;20085;-78
2022/11/12 09:10:29;;;;;;;539.03;92.90;;;7.10;99.90;;;;;;4964011;28;20086;-77
2022/11/12 09:12:55;;;;;;;685.80;126.90;;;7.20;99.90;;;;;;4984259;28;20054;-77
2022/11/12 09:15:22;;;;;;;599.33;109.60;;;7.30;99.90;;;;;;4978138;28;21576;-77
2022/11/12 09:17:53;;;;;;;557.07;102.13;;;7.20;99.90;;;;;;4965438;28;20386;-77
2022/11/12 09:20:18;;;;;;;589.40;105.63;;;7.30;99.90;;;;;;4980718;28;20038;-77
2022/11/12 09:22:44;;;;;;;515.57;96.87;;;7.50;99.90;;;;;;4980905;28;20121;-77
2022/11/12 09:25:10;;;;;;;578.27;103.37;;;7.40;99.90;;;;;;4982381;28;20050;-77
2022/11/12 09:27:36;;;;;;;656.17;115.77;;;7.40;99.90;;;;;;4968307;28;20060;-77
2022/11/12 09:30:01;;;;;;;718.20;118.97;;;7.50;99.90;;;;;;4982149;28;20105;-78
2022/11/12 09:32:27;;;;;;;551.77;97.47;;;7.50;99.90;;;;;;4983850;28;20099;-77
2022/11/12 09:34:53;;;;;;;793.03;129.60;;;7.60;99.90;;;;;;4971366;28;20429;-77
2022/11/12 09:37:18;;;;;;;765.17;129.53;;;7.60;99.90;;;;;;4971013;28;20413;-77
2022/11/12 09:39:44;;;;;;;687.90;118.67;;;7.70;99.90;;;;;;4985336;28;20483;-78
2022/11/12 09:42:18;;;;;;;777.60;134.90;;;7.70;99.90;;;;;;4980545;28;20078;-78
2022/11/12 09:44:51;;;;;;;625.77;108.53;;;7.70;99.90;;;;;;4981633;28;20060;-78
2022/11/12 09:47:22;;;;;;;616.30;114.77;;;7.60;99.90;;;;;;4942397;28;20402;-77
2022/11/12 09:50:23;;;;;;;575.08;97.60;;;7.60;99.90;;;;;;4975386;28;20054;-79
2022/11/12 09:52:59;;;;;;;584.40;101.10;;;7.60;99.90;;;;;;4975220;28;20058;-77
2022/11/12 09:55:39;;;;;;;623.53;111.30;;;7.60;99.90;;;;;;4976140;28;20046;-77
2022/11/12 09:58:14;;;;;;;725.80;116.40;;;7.60;99.90;;;;;;4959626;28;20082;-78
2022/11/12 10:00:51;;;;;;;595.30;107.77;;;7.70;99.90;;;;;;4974998;28;20104;-78
2022/11/12 10:03:45;;;;;;;504.77;87.23;;;7.60;99.90;;;;;;4976739;28;20056;-79
2022/11/12 10:06:10;;;;;;;474.17;91.30;;;7.70;99.90;;;;;;4968950;28;20372;-77
2022/11/12 10:08:55;;;;;;;457.60;87.40;;;7.60;99.90;;;;;;4967381;28;20050;-78
2022/11/12 10:11:30;;;;;;;423.00;87.53;;;7.50;99.90;;;;;;4964573;28;20157;-77
2022/11/12 10:14:12;;;;;;;483.83;90.33;;;7.60;99.90;;;;;;4976499;28;20518;-77
2022/11/12 10:17:02;;;;;;;563.95;96.35;;;7.60;99.90;;;;;;4968756;28;20323;-79
2022/11/12 10:19:30;;;;;;;462.57;89.67;;;7.50;99.90;;;;;;4977692;28;20332;-77
2022/11/12 10:22:06;;;;;;;395.80;82.97;;;7.50;99.90;;;;;;4977062;28;20569;-77
2022/11/12 10:24:36;;;;;;;317.63;70.13;;;7.60;99.90;;;;;;4979753;28;20060;-77
2022/11/12 10:27:12;;;;;;;461.33;88.00;;;7.50;99.90;;;;;;4952761;28;20073;-78
2022/11/12 10:29:54;;;;;;;572.03;104.30;;;7.60;99.90;;;;;;4964507;28;20095;-77
2022/11/12 10:32:20;;;;;;;581.30;115.40;;;7.50;99.90;;;;;;4978150;28;20403;-78
2022/11/12 10:34:45;;;;;;;419.93;82.17;;;7.60;99.90;;;;;;4981574;28;20503;-77
2022/11/12 10:37:23;;;;;;;396.93;76.40;;;7.60;99.90;;;;;;4970572;28;20062;-77
2022/11/12 10:39:49;;;;;;;508.30;93.27;;;7.50;99.90;;;;;;4966824;28;20058;-78
2022/11/12 10:42:17;;;;;;;457.27;94.13;;;7.40;99.90;;;;;;4974235;28;20058;-77
2022/11/12 10:44:44;;;;;;;452.43;91.60;;;7.50;99.90;;;;;;4957903;28;20053;-77
2022/11/12 10:47:30;;;;;;;495.57;105.00;;;7.50;99.90;;;;;;4965852;28;20064;-77
2022/11/12 10:50:17;;;;;;;520.63;104.83;;;7.50;99.90;;;;;;4981967;28;20053;-77
2022/11/12 10:52:56;;;;;;;496.27;113.83;;;7.40;99.90;;;;;;4983698;28;20100;-77
2022/11/12 10:55:26;;;;;;;466.17;101.37;;;7.60;99.90;;;;;;4981281;28;20042;-78
2022/11/12 10:58:24;;;;;;;440.63;94.93;;;7.60;99.90;;;;;;4970271;28;20523;-77
2022/11/12 11:01:15;;;;;;;444.40;98.47;;;7.70;99.90;;;;;;4977979;28;20378;-78
2022/11/12 11:03:53;;;;;;;529.22;114.80;;;7.50;99.90;;;;;;4979505;28;20046;-77
2022/11/12 11:06:23;;;;;;;537.23;105.03;;;7.80;99.90;;;;;;4969074;28;20047;-80
2022/11/12 11:08:51;;;;;;;351.80;85.83;;;7.60;99.90;;;;;;4973887;28;20058;-77
2022/11/12 11:11:27;;;;;;;361.00;92.40;;;7.60;99.90;;;;;;4977472;28;20065;-78
2022/11/12 11:14:17;;;;;;;399.10;111.73;;;7.70;99.90;;;;;;4981601;28;20086;-77
2022/11/12 11:16:55;;;;;;;296.60;82.57;;;7.70;99.90;;;;;;4965534;28;20046;-77
2022/11/12 11:19:21;;;;;;;250.80;77.37;;;7.80;99.90;;;;;;4983309;28;20551;-77
2022/11/12 11:21:50;;;;;;;254.53;74.60;;;7.80;99.90;;;;;;4980611;28;20408;-78
2022/11/12 11:24:43;;;;;;;213.80;69.57;;;7.90;99.90;;;;;;4969222;28;20071;-79
2022/11/12 11:27:40;;;;;;;265.57;79.37;;;7.80;99.90;;;;;;4961843;28;20051;-77
2022/11/12 11:30:16;;;;;;;345.13;87.33;;;8.00;99.90;;;;;;4978715;28;20058;-78
2022/11/12 11:32:54;;;;;;;298.20;83.93;;;8.10;99.90;;;;;;4984829;28;20057;-78
2022/11/12 11:35:26;;;;;;;284.30;87.50;;;8.10;99.90;;;;;;4982526;28;20112;-78
2022/11/12 11:38:23;;;;;;;270.10;83.47;;;8.10;99.90;;;;;;4964157;28;20061;-78
2022/11/12 11:41:08;;;;;;;240.97;75.50;;;8.10;99.90;;;;;;4965902;28;20059;-78
2022/11/12 11:43:47;;;;;;;229.33;77.00;;;8.10;99.90;;;;;;4981509;28;20046;-77
2022/11/12 11:46:32;;;;;;;200.00;79.07;;;8.20;99.90;;;;;;4956308;28;20061;-78
2022/11/12 11:49:21;;;;;;;194.53;75.67;;;8.30;99.90;;;;;;4983560;28;20409;-78
2022/11/12 11:52:12;;;;;;;161.50;69.93;;;8.20;99.90;;;;;;4982285;28;20060;-78
2022/11/12 11:54:58;;;;;;;;;;;8.10;99.90;;;;;;4954752;28;20086;-78
2022/11/12 11:57:42;;;;;;;148.23;65.23;;;8.00;99.90;;;;;;4974235;28;20455;-77
2022/11/12 12:00:21;;;;;;;139.23;62.27;;;8.10;99.90;;;;;;4987251;28;20038;-78
2022/11/12 12:03:06;;;;;;;144.47;64.00;;;8.20;99.90;;;;;;4991383;28;20046;-77
2022/11/12 12:05:43;;;;;;;143.40;63.40;;;8.10;99.90;;;;;;4987288;28;20054;-78
2022/11/12 12:08:18;;;;;;;141.70;66.67;;;8.00;99.90;;;;;;4973606;28;20070;-77
2022/11/12 12:11:06;;;;;;;131.23;61.23;;;8.10;99.90;;;;;;4987444;28;20046;-77
2022/11/12 12:13:45;;;;;;;124.67;59.73;;;8.20;99.90;;;;;;4990848;28;20476;-77
2022/11/12 12:16:35;;;;;;;118.80;59.07;;;8.10;99.90;;;;;;4978953;28;20054;-77
2022/11/12 12:19:07;;;;;;;126.10;60.73;;;8.20;99.90;;;;;;4986851;28;20050;-77
2022/11/12 12:21:35;;;;;;;118.47;60.50;;;8.40;99.90;;;;;;4986932;28;20046;-77
2022/11/12 12:24:24;;;;;;;125.40;63.30;;;8.50;99.90;;;;;;4971176;28;20050;-78
2022/11/12 12:27:12;;;;;;;122.33;61.60;;;8.50;99.90;;;;;;4976309;28;20053;-78
2022/11/12 12:29:48;;;;;;;103.73;57.23;;;8.40;99.90;;;;;;4971996;28;20088;-77
2022/11/12 12:32:37;;;;;;;111.50;58.87;;;8.60;99.90;;;;;;4980329;28;20058;-77
2022/11/12 12:35:21;;;;;;;103.40;54.87;;;8.50;99.90;;;;;;4991608;28;20131;-78
2022/11/12 12:38:20;;;;;;;108.73;60.03;;;8.60;99.90;;;;;;4969779;28;20064;-77
2022/11/12 12:40:50;;;;;;;94.53;54.00;;;8.50;99.90;;;;;;4982079;28;20043;-78
2022/11/12 12:43:43;;;;;;;89.97;53.03;;;8.50;99.90;;;;;;4981504;28;20046;-77
2022/11/12 12:46:13;;;;;;;93.93;53.27;;;8.40;99.90;;;;;;4974090;28;20588;-80
2022/11/12 12:48:44;;;;;;;88.77;49.80;;;8.40;99.90;;;;;;4974754;28;20393;-77
2022/11/12 12:51:10;;;;;;;93.83;49.50;;;8.40;99.90;;;;;;4988203;28;20046;-78
2022/11/12 12:53:36;;;;;;;93.97;52.37;;;8.30;99.90;;;;;;4966159;28;20130;-78
2022/11/12 12:56:31;;;;;;;96.80;52.33;;;8.40;99.90;;;;;;4990348;28;20053;-77
2022/11/12 12:59:02;;;;;;;91.23;52.77;;;8.50;99.90;;;;;;4985716;28;20100;-78
2022/11/12 13:01:33;;;;;;;103.22;57.30;;;8.40;99.90;;;;;;4991205;28;20054;-77
2022/11/12 13:04:08;;;;;;;82.88;49.60;;;8.60;99.90;;;;;;4986745;28;21602;-77
2022/11/12 13:06:50;;;;;;;92.70;51.80;;;8.60;99.90;;;;;;4959571;28;20049;-78